Time;durP1;ratioP1;P1;durP2;ratioP2;P2;SDS_P1;SDS_P2;PMS_P1;PMS_P2;Temp;Humidity;BMP_temperature;BMP_pressure;BME280_temperature;BME280_humidity;BME280_pressure;Samples;Min_cycle;Max_cycle;Signal;HPM_P1;HPM_P2
2022/12/28 00:04:43;;;;;;;2.00;1.80;;;;;;;19.50;48.06;97637.22;10338919;28;20053;-53
2022/12/28 00:10:02;;;;;;;1.55;1.30;;;;;;;19.49;47.96;97628.31;10351627;28;20454;-54
2022/12/28 00:15:22;;;;;;;1.80;1.40;;;;;;;19.46;47.96;97631.63;10332123;28;20149;-53
2022/12/28 00:20:42;;;;;;;1.77;1.50;;;;;;;19.45;47.96;97613.81;10337735;28;20058;-54
2022/12/28 00:26:12;;;;;;;2.15;1.45;;;;;;;19.44;47.89;97612.19;10337406;28;20073;-54
2022/12/28 00:31:32;;;;;;;1.45;1.30;;;;;;;19.43;48.09;97591.69;10332031;28;20062;-54
2022/12/28 00:36:52;;;;;;;1.38;1.27;;;;;;;19.42;48.16;97592.78;10350718;28;20050;-53
2022/12/28 00:42:11;;;;;;;2.03;1.40;;;;;;;19.40;47.97;97597.69;10337101;28;20506;-54
2022/12/28 00:47:31;;;;;;;1.40;1.30;;;;;;;19.40;48.00;97599.59;10350597;28;20062;-53
2022/12/28 00:52:50;;;;;;;2.00;1.55;;;;;;;19.38;48.05;97602.59;10337202;28;20050;-54
2022/12/28 00:58:10;;;;;;;1.95;1.40;;;;;;;19.36;48.13;97597.50;10324009;28;20066;-54
2022/12/28 01:03:29;;;;;;;1.70;1.40;;;;;;;19.36;48.00;97594.00;10336553;28;20057;-54
2022/12/28 01:08:50;;;;;;;1.23;1.13;;;;;;;19.35;48.10;97606.72;10334833;28;20100;-53
2022/12/28 01:14:10;;;;;;;1.42;1.33;;;;;;;19.33;48.06;97600.03;10334949;28;20062;-54
2022/12/28 01:19:29;;;;;;;1.35;1.25;;;;;;;19.32;48.04;97598.41;10335781;28;20105;-54
2022/12/28 01:24:48;;;;;;;1.80;1.27;;;;;;;19.30;48.09;97593.31;10335413;28;20047;-54
2022/12/28 01:30:09;;;;;;;1.95;1.38;;;;;;;19.29;48.05;97586.31;10327327;28;20062;-53
2022/12/28 01:35:30;;;;;;;1.50;1.40;;;;;;;19.27;48.15;97574.25;10348468;28;20109;-54
2022/12/28 01:40:50;;;;;;;1.20;1.08;;;;;;;19.25;48.06;97581.81;10334725;28;20070;-54
2022/12/28 01:46:41;;;;;;;1.40;1.27;;;;;;;19.25;48.21;97577.22;10347500;28;20050;-53
2022/12/28 01:52:06;;;;;;;1.33;1.20;;;;;;;19.23;48.01;97579.44;10334213;28;20060;-54
2022/12/28 01:57:29;;;;;;;1.52;1.20;;;;;;;19.23;48.13;97562.41;10334019;28;20507;-54
2022/12/28 02:03:00;;;;;;;1.55;1.33;;;;;;;19.21;48.08;97545.72;10318357;28;20062;-54
2022/12/28 02:08:28;;;;;;;1.30;1.20;;;;;;;19.19;48.05;97540.63;10319324;28;20058;-54
2022/12/28 02:13:50;;;;;;;1.45;1.15;;;;;;;19.19;47.95;97539.81;10312434;28;20065;-54
2022/12/28 02:19:13;;;;;;;1.20;1.10;;;;;;;19.16;48.17;97530.41;10318915;28;20057;-53
2022/12/28 02:24:56;;;;;;;1.42;1.10;;;;;;;19.15;48.07;97526.94;10332323;28;20054;-53
2022/12/28 02:30:16;;;;;;;1.13;1.02;;;;;;;19.13;48.17;97507.53;10345947;28;20046;-52
2022/12/28 02:35:42;;;;;;;1.58;1.20;;;;;;;19.13;48.08;97498.59;10331962;28;20055;-53
2022/12/28 02:41:19;;;;;;;1.33;0.98;;;;;;;19.10;47.99;97483.81;10333046;28;20050;-53
2022/12/28 02:52:50;;;;;;;2.22;1.13;;;;;;;19.07;48.06;97473.63;10345717;28;20101;-54
2022/12/28 02:58:35;;;;;;;1.38;1.17;;;;;;;19.07;48.25;97473.63;10324979;28;20066;-52
2022/12/28 03:03:55;;;;;;;1.23;1.13;;;;;;;19.05;48.11;97465.03;10330881;28;20521;-53
2022/12/28 03:09:27;;;;;;;1.40;1.20;;;;;;;19.03;48.13;97453.72;10328604;28;20050;-53
2022/12/28 03:14:59;;;;;;;1.20;1.10;;;;;;;19.02;48.12;97449.44;10315849;28;20458;-53
2022/12/28 03:31:46;;;;;;;1.33;1.10;;;;;;;18.98;48.19;97418.75;10305164;28;20097;-53
2022/12/28 03:37:12;;;;;;;1.38;1.08;;;;;;;18.95;48.06;97406.66;10314443;28;20070;-53
2022/12/28 03:48:21;;;;;;;1.20;1.10;;;;;;;18.93;48.12;97386.47;10316020;28;20129;-53
2022/12/28 03:53:44;;;;;;;1.10;1.00;;;;;;;18.93;48.09;97386.47;10316134;28;20058;-54
2022/12/28 03:59:07;;;;;;;1.58;1.20;;;;;;;18.91;47.98;97378.66;10315537;28;20515;-53
2022/12/28 04:04:34;;;;;;;0.93;0.90;;;;;;;18.89;48.28;97370.06;10332962;28;20066;-53
2022/12/28 04:09:54;;;;;;;1.00;0.90;;;;;;;18.89;48.12;97363.88;10338556;28;20069;-53
2022/12/28 04:15:13;;;;;;;1.13;0.98;;;;;;;18.87;48.05;97366.09;10325985;28;20070;-54
2022/12/28 04:20:33;;;;;;;0.82;0.82;;;;;;;18.86;48.07;97361.81;10323616;28;20132;-54
2022/12/28 04:26:01;;;;;;;1.30;1.20;;;;;;;18.84;48.04;97355.91;10341170;28;20498;-54
2022/12/28 04:31:20;;;;;;;1.30;0.90;;;;;;;18.84;48.01;97355.91;10336005;28;20502;-52
2022/12/28 04:36:50;;;;;;;1.25;1.00;;;;;;;18.81;48.02;97348.41;10336820;28;20066;-53
2022/12/28 04:42:12;;;;;;;1.10;0.93;;;;;;;18.79;48.05;97337.88;10322618;28;20051;-54
2022/12/28 04:47:31;;;;;;;1.38;1.00;;;;;;;18.78;48.10;97337.09;10336570;28;20537;-54
2022/12/28 04:52:51;;;;;;;0.80;0.80;;;;;;;18.77;48.10;97327.41;10349973;28;20415;-54
2022/12/28 04:58:11;;;;;;;0.98;0.90;;;;;;;18.76;48.11;97322.31;10324684;28;20078;-54
2022/12/28 05:03:30;;;;;;;1.10;1.00;;;;;;;18.74;48.07;97309.13;10336629;28;20415;-53
2022/12/28 05:08:50;;;;;;;1.00;0.90;;;;;;;18.73;48.04;97304.03;10336048;28;20549;-53
2022/12/28 05:14:09;;;;;;;0.88;0.88;;;;;;;18.71;48.12;97296.22;10334702;28;20418;-53
2022/12/28 05:19:29;;;;;;;0.90;0.90;;;;;;;18.71;47.97;97315.13;10334324;28;20058;-54
2022/12/28 05:24:48;;;;;;;1.02;0.93;;;;;;;18.70;48.03;97297.34;10336048;28;20054;-54
2022/12/28 05:30:08;;;;;;;0.80;0.80;;;;;;;18.70;48.03;97293.84;10327452;28;20522;-54
2022/12/28 05:35:27;;;;;;;0.93;0.77;;;;;;;18.71;48.08;97290.84;10335447;28;20054;-54
2022/12/28 05:40:47;;;;;;;0.93;0.90;;;;;;;18.70;48.08;97281.16;10341309;28;20054;-53
2022/12/28 05:46:09;;;;;;;1.27;1.00;;;;;;;18.70;48.20;97281.16;10322089;28;20058;-55
2022/12/28 05:51:31;;;;;;;1.08;0.98;;;;;;;18.71;48.07;97271.94;10334806;28;20058;-54
2022/12/28 05:56:51;;;;;;;1.08;0.93;;;;;;;18.72;48.05;97268.16;10343792;28;20443;-53
2022/12/28 06:02:11;;;;;;;4.20;1.10;;;;;;;18.74;48.00;97281.34;10328451;28;20061;-53
2022/12/28 06:07:30;;;;;;;0.82;0.82;;;;;;;18.74;48.16;97274.03;10334532;28;20058;-53
2022/12/28 06:12:50;;;;;;;0.80;0.80;;;;;;;18.76;48.17;97282.63;10330187;28;20514;-54
2022/12/28 06:18:10;;;;;;;0.80;0.80;;;;;;;18.77;48.03;97286.91;10295849;28;20423;-53
2022/12/28 06:23:29;;;;;;;0.63;0.63;;;;;;;18.78;48.02;97282.31;10293861;28;20062;-53
2022/12/28 06:28:49;;;;;;;0.90;0.70;;;;;;;18.80;47.94;97273.94;10311465;28;20406;-54
2022/12/28 06:34:09;;;;;;;1.13;0.82;;;;;;;18.83;47.97;97273.31;10298285;28;20057;-54
2022/12/28 06:39:28;;;;;;;0.73;0.70;;;;;;;18.83;47.90;97274.13;10292477;28;20525;-54
2022/12/28 06:44:48;;;;;;;1.25;1.00;;;;;;;18.86;47.99;97287.00;10285125;28;20050;-54
2022/12/28 06:50:08;;;;;;;0.70;0.70;;;;;;;18.88;47.77;97263.19;10281465;28;20063;-53
2022/12/28 06:55:27;;;;;;;1.20;0.90;;;;;;;18.90;47.86;97271.78;10292877;28;20455;-54
2022/12/28 07:00:47;;;;;;;0.77;0.75;;;;;;;18.92;48.07;97274.19;10291081;28;20059;-53
2022/12/28 07:06:07;;;;;;;0.80;0.80;;;;;;;18.93;47.87;97276.59;10324246;28;20054;-53
2022/12/28 07:11:27;;;;;;;1.00;0.82;;;;;;;18.97;47.86;97279.44;10292876;28;20063;-53
2022/12/28 07:16:48;;;;;;;1.88;0.82;;;;;;;19.00;48.06;97272.66;10332220;28;20059;-54
2022/12/28 07:22:07;;;;;;;0.80;0.80;;;;;;;19.01;48.15;97282.31;10305913;28;20108;-52
2022/12/28 07:27:27;;;;;;;1.00;0.70;;;;;;;19.03;48.02;97283.59;10344847;28;20054;-53
2022/12/28 07:32:46;;;;;;;0.80;0.80;;;;;;;19.06;48.11;97274.13;10331527;28;20097;-53
2022/12/28 07:38:06;;;;;;;0.60;0.60;;;;;;;19.07;48.11;97263.00;10331742;28;20062;-54
2022/12/28 07:43:25;;;;;;;1.52;1.30;;;;;;;19.10;46.20;97261.59;10348537;28;20061;-54
2022/12/28 07:48:45;;;;;;;1.00;1.00;;;;;;;19.11;47.56;97272.09;10337678;28;20454;-55
2022/12/28 07:54:05;;;;;;;2.35;0.88;;;;;;;19.14;47.43;97276.06;10338449;28;20054;-55
2022/12/28 07:59:25;;;;;;;0.95;0.85;;;;;;;19.17;47.56;97261.94;10338010;28;20073;-54
2022/12/28 08:04:44;;;;;;;0.98;0.88;;;;;;;19.20;47.64;97252.41;10338066;28;20058;-54
2022/12/28 08:10:04;;;;;;;0.90;0.85;;;;;;;19.23;47.66;97240.97;10334471;28;20406;-53
2022/12/28 08:15:23;;;;;;;1.10;0.80;;;;;;;19.25;47.60;97234.19;10334832;28;20050;-54
2022/12/28 08:20:43;;;;;;;1.00;0.70;;;;;;;19.26;47.44;97238.44;10337845;28;20054;-54
2022/12/28 08:26:06;;;;;;;0.75;0.73;;;;;;;19.28;47.81;97230.84;10328362;28;20059;-53
2022/12/28 08:31:28;;;;;;;0.73;0.70;;;;;;;19.32;47.55;97231.81;10306290;28;20465;-53
2022/12/28 08:36:48;;;;;;;3.63;0.90;;;;;;;19.34;48.10;97234.19;10330048;28;20051;-55
2022/12/28 08:42:08;;;;;;;3.70;1.90;;;;;;;18.97;36.15;97236.25;10335300;28;20104;-53
2022/12/28 08:47:27;;;;;;;3.67;1.48;;;;;;;18.94;41.68;97231.47;10337725;28;20055;-52
2022/12/28 08:52:47;;;;;;;3.00;1.30;;;;;;;19.08;43.13;97221.38;10324822;28;20155;-54
2022/12/28 08:58:06;;;;;;;2.35;1.50;;;;;;;19.19;43.09;97215.69;10309056;28;20070;-54
2022/12/28 09:03:26;;;;;;;1.58;1.30;;;;;;;19.25;43.10;97222.56;10300511;28;20059;-54
2022/12/28 09:08:54;;;;;;;1.67;1.27;;;;;;;19.29;43.27;97213.53;10321585;28;20065;-53
2022/12/28 09:14:13;;;;;;;2.35;1.20;;;;;;;19.33;43.36;97197.50;10324960;28;20042;-53
2022/12/28 09:19:33;;;;;;;1.67;1.27;;;;;;;19.37;43.49;97195.75;10333413;28;20105;-54
2022/12/28 09:24:52;;;;;;;2.25;1.30;;;;;;;19.40;43.64;97192.41;10335313;28;20569;-54
2022/12/28 09:30:12;;;;;;;1.65;1.20;;;;;;;19.43;43.74;97186.41;10318909;28;20062;-51
2022/12/28 09:35:32;;;;;;;1.85;1.55;;;;;;;19.45;44.10;97175.28;10305378;28;20069;-55
2022/12/28 09:40:54;;;;;;;1.30;1.20;;;;;;;19.49;44.15;97179.75;10303776;28;20070;-53
2022/12/28 09:46:15;;;;;;;1.23;1.10;;;;;;;19.51;44.42;97182.91;10303716;28;20066;-53
2022/12/28 09:51:42;;;;;;;1.38;1.27;;;;;;;19.53;44.62;97174.50;10319271;28;20061;-55
2022/12/28 09:57:02;;;;;;;1.17;1.08;;;;;;;19.55;44.60;97170.38;10320259;28;20054;-54
2022/12/28 10:02:29;;;;;;;1.60;1.17;;;;;;;19.59;45.02;97167.84;10322490;28;20461;-53
2022/12/28 10:07:50;;;;;;;1.30;1.20;;;;;;;19.61;45.32;97145.91;10327356;28;20529;-54
2022/12/28 10:13:18;;;;;;;1.20;1.10;;;;;;;19.64;45.65;97139.84;10327099;28;20055;-54
2022/12/28 10:18:38;;;;;;;2.35;1.13;;;;;;;19.66;45.79;97126.81;10311719;28;20069;-55
2022/12/28 10:23:57;;;;;;;1.05;0.90;;;;;;;19.69;45.95;97109.97;10334138;28;20422;-55
2022/12/28 10:29:19;;;;;;;1.20;1.00;;;;;;;19.72;46.05;97110.19;10333374;28;20066;-55
2022/12/28 10:35:00;;;;;;;1.63;1.13;;;;;;;19.74;46.22;97107.94;10331049;28;20105;-54
2022/12/28 10:40:26;;;;;;;1.42;1.13;;;;;;;19.76;46.23;97094.13;10323661;28;20065;-54
2022/12/28 10:45:48;;;;;;;1.10;1.00;;;;;;;19.78;46.40;97086.50;10318722;28;20120;-54
2022/12/28 10:51:23;;;;;;;1.88;1.10;;;;;;;19.81;46.50;97080.44;10318604;28;20058;-54
2022/12/28 10:56:47;;;;;;;1.25;0.95;;;;;;;19.83;46.43;97074.72;10331032;28;20166;-54
2022/12/28 11:02:26;;;;;;;1.60;0.90;;;;;;;19.83;46.67;97074.72;10320106;28;20046;-52
2022/12/28 11:07:47;;;;;;;1.55;1.00;;;;;;;19.85;46.35;97069.78;10345478;28;20046;-54
2022/12/28 11:13:18;;;;;;;1.75;0.80;;;;;;;19.85;46.60;97069.78;10317512;28;20057;-54
2022/12/28 11:18:38;;;;;;;1.30;0.88;;;;;;;19.85;46.51;97054.34;10330941;28;20057;-54
2022/12/28 11:23:58;;;;;;;2.13;0.85;;;;;;;19.87;46.44;97045.91;10317013;28;20061;-54
2022/12/28 11:29:18;;;;;;;2.22;1.00;;;;;;;19.86;46.65;97034.31;10332168;28;20069;-54
2022/12/28 11:34:37;;;;;;;2.40;1.00;;;;;;;19.86;46.70;97034.31;10326064;28;20058;-55
2022/12/28 11:39:59;;;;;;;1.98;1.13;;;;;;;19.87;46.71;97030.47;10331667;28;20069;-54
2022/12/28 11:45:51;;;;;;;2.45;0.95;;;;;;;19.86;46.81;97022.72;10326717;28;20058;-53
2022/12/28 11:51:19;;;;;;;1.48;0.80;;;;;;;19.88;46.81;97015.06;10331815;28;20062;-54
2022/12/28 11:56:42;;;;;;;1.48;0.88;;;;;;;19.87;47.02;97014.25;10331427;28;20058;-55
2022/12/28 12:02:28;;;;;;;0.80;0.80;;;;;;;19.87;47.01;97014.25;10325776;28;20054;-55
2022/12/28 12:07:47;;;;;;;1.95;1.00;;;;;;;19.87;47.14;97002.66;10331286;28;20465;-54
2022/12/28 12:13:22;;;;;;;1.00;0.90;;;;;;;19.86;47.17;96993.75;10330587;28;20058;-53
2022/12/28 12:18:48;;;;;;;0.60;0.60;;;;;;;19.87;47.23;96978.31;10344086;28;20058;-53
2022/12/28 12:24:20;;;;;;;1.13;0.90;;;;;;;19.86;47.06;96966.72;10331145;28;20066;-53
2022/12/28 12:29:43;;;;;;;1.50;0.93;;;;;;;19.85;47.33;96956.22;10321912;28;20469;-54
2022/12/28 12:35:05;;;;;;;1.20;0.95;;;;;;;19.84;47.26;96950.03;10330425;28;20082;-54
2022/12/28 12:40:46;;;;;;;2.33;1.08;;;;;;;19.85;47.26;96945.41;10320092;28;20059;-54
2022/12/28 12:46:35;;;;;;;1.30;0.95;;;;;;;19.83;47.43;96932.22;10324906;28;20054;-54
2022/12/28 12:52:26;;;;;;;0.85;0.70;;;;;;;19.83;47.54;96934.13;10350348;28;20059;-54
2022/12/28 12:57:48;;;;;;;0.88;0.88;;;;;;;19.82;47.69;96927.16;10320937;28;20442;-53
2022/12/28 13:03:15;;;;;;;1.25;1.00;;;;;;;19.82;47.88;96927.16;10324899;28;20058;-53
2022/12/28 13:08:56;;;;;;;1.15;0.70;;;;;;;19.83;48.29;96921.41;10321998;28;20074;-54
2022/12/28 13:14:21;;;;;;;1.13;1.00;;;;;;;19.82;48.25;96917.13;10329189;28;20058;-52
2022/12/28 13:19:40;;;;;;;1.10;1.00;;;;;;;19.82;48.33;96919.03;10330811;28;20063;-55
2022/12/28 13:25:00;;;;;;;0.90;0.80;;;;;;;19.81;48.32;96920.13;10309317;28;20063;-54
2022/12/28 13:30:22;;;;;;;1.00;0.90;;;;;;;19.78;48.27;96913.47;10310959;28;20054;-54
2022/12/28 13:35:41;;;;;;;0.93;0.80;;;;;;;19.78;48.28;96908.06;10336133;28;20046;-54
2022/12/28 13:41:02;;;;;;;1.10;0.90;;;;;;;19.78;48.23;96907.25;10331271;28;20054;-54
2022/12/28 13:46:22;;;;;;;1.30;0.88;;;;;;;19.77;48.18;96894.88;10334160;28;20062;-54
2022/12/28 13:51:42;;;;;;;1.38;1.10;;;;;;;19.75;48.40;96897.91;10335173;28;20066;-54
2022/12/28 13:57:02;;;;;;;1.30;0.80;;;;;;;19.73;48.22;96890.09;10334731;28;20108;-54
2022/12/28 14:02:22;;;;;;;0.77;0.77;;;;;;;19.73;48.32;96887.41;10307185;28;20165;-53
2022/12/28 14:07:42;;;;;;;0.73;0.73;;;;;;;19.72;48.42;96885.81;10347327;28;20422;-54
2022/12/28 14:13:02;;;;;;;0.85;0.80;;;;;;;19.71;48.37;96889.63;10332377;28;20455;-55
2022/12/28 14:18:23;;;;;;;1.10;0.80;;;;;;;19.70;48.28;96882.63;10278652;28;20066;-54
2022/12/28 14:23:43;;;;;;;0.73;0.65;;;;;;;19.69;48.16;96872.13;10273383;28;20066;-53
2022/12/28 14:29:09;;;;;;;1.00;0.90;;;;;;;19.67;48.18;96869.75;10269550;28;20146;-52
2022/12/28 14:34:30;;;;;;;0.70;0.70;;;;;;;19.67;48.16;96882.47;10293094;28;20119;-52
2022/12/28 14:39:50;;;;;;;0.95;0.70;;;;;;;19.65;48.18;96882.00;10316888;28;20051;-53
2022/12/28 14:45:34;;;;;;;0.90;0.80;;;;;;;19.63;48.30;96882.31;10299310;28;20554;-53
2022/12/28 14:51:00;;;;;;;0.80;0.80;;;;;;;19.63;48.28;96878.81;10279958;28;20058;-52
2022/12/28 14:56:20;;;;;;;0.95;0.80;;;;;;;19.61;48.25;96884.56;10278759;28;20054;-54
2022/12/28 15:01:45;;;;;;;1.08;0.88;;;;;;;19.61;48.25;96878.34;10278654;28;20102;-54
2022/12/28 15:07:09;;;;;;;0.80;0.80;;;;;;;19.59;48.41;96883.28;10279076;28;20503;-53
2022/12/28 15:12:28;;;;;;;0.90;0.73;;;;;;;19.58;48.32;96873.59;10314914;28;20507;-53
2022/12/28 15:17:47;;;;;;;1.05;0.80;;;;;;;19.56;48.29;96874.72;10292118;28;20054;-51
2022/12/28 15:23:07;;;;;;;1.80;0.80;;;;;;;19.55;48.40;96878.53;10291509;28;20058;-53
2022/12/28 15:28:26;;;;;;;1.10;0.90;;;;;;;19.53;48.33;96864.53;10292878;28;20055;-51
2022/12/28 15:33:46;;;;;;;3.88;0.88;;;;;;;19.53;48.43;96879.97;10309067;28;20115;-53
2022/12/28 15:39:06;;;;;;;0.90;0.75;;;;;;;19.51;48.42;96885.69;10307245;28;20051;-55
2022/12/28 15:44:25;;;;;;;0.95;0.70;;;;;;;19.51;48.40;96882.97;10305726;28;20494;-54
2022/12/28 15:49:45;;;;;;;1.20;0.90;;;;;;;19.49;48.33;96874.41;10317698;28;20071;-53
2022/12/28 15:55:05;;;;;;;1.10;0.88;;;;;;;19.49;48.35;96871.72;10299762;28;20051;-53
2022/12/28 16:00:24;;;;;;;0.80;0.70;;;;;;;19.48;48.32;96867.44;10271387;28;20058;-54
2022/12/28 16:05:44;;;;;;;1.20;0.90;;;;;;;19.46;48.56;96866.16;10295079;28;20057;-54
2022/12/28 16:11:11;;;;;;;1.10;0.80;;;;;;;19.45;48.50;96868.06;10320198;28;20058;-54
2022/12/28 16:16:35;;;;;;;1.50;0.80;;;;;;;19.45;48.51;96868.06;10337850;28;20065;-54
2022/12/28 16:21:54;;;;;;;0.70;0.70;;;;;;;19.42;48.62;96866.00;10338622;28;20073;-54
2022/12/28 16:27:14;;;;;;;1.05;0.77;;;;;;;19.42;48.56;96859.81;10327322;28;20085;-54
2022/12/28 16:32:33;;;;;;;0.75;0.75;;;;;;;19.42;48.68;96863.28;10338349;28;20069;-55
2022/12/28 16:37:52;;;;;;;0.65;0.65;;;;;;;19.42;48.68;96862.50;10337161;28;20069;-54
2022/12/28 16:43:14;;;;;;;1.10;0.90;;;;;;;19.40;48.87;96864.72;10338058;28;20058;-55
2022/12/28 16:48:34;;;;;;;0.93;0.90;;;;;;;19.39;48.75;96855.84;10350649;28;20506;-54
2022/12/28 16:53:53;;;;;;;1.02;0.85;;;;;;;19.38;48.85;96856.94;10336641;28;20507;-54
2022/12/28 16:59:23;;;;;;;0.80;0.80;;;;;;;19.36;48.71;96864.56;10350086;28;20430;-54
2022/12/28 17:04:43;;;;;;;1.05;1.00;;;;;;;19.35;48.84;96861.09;10329076;28;20054;-52
2022/12/28 17:10:03;;;;;;;0.80;0.80;;;;;;;19.34;48.88;96872.22;10329800;28;20135;-54
2022/12/28 17:15:23;;;;;;;0.93;0.80;;;;;;;19.32;48.90;96855.53;10314074;28;20694;-53
2022/12/28 17:20:43;;;;;;;1.17;1.08;;;;;;;19.31;48.84;96857.44;10324293;28;20089;-55
2022/12/28 17:26:03;;;;;;;1.30;0.77;;;;;;;19.30;49.05;96842.34;10292397;28;20059;-54
2022/12/28 17:31:23;;;;;;;1.27;0.90;;;;;;;19.29;49.21;96837.28;10256413;28;20467;-55
2022/12/28 17:36:43;;;;;;;1.02;0.70;;;;;;;19.29;49.35;96821.06;10293960;28;20058;-54
2022/12/28 17:42:03;;;;;;;1.67;0.90;;;;;;;19.27;49.48;96824.09;10284552;28;20072;-54
2022/12/28 17:47:23;;;;;;;0.77;0.77;;;;;;;19.27;49.40;96823.31;10310765;28;20085;-55
2022/12/28 17:52:42;;;;;;;3.30;1.00;;;;;;;19.24;49.42;96832.81;10314698;28;20058;-55
2022/12/28 17:58:02;;;;;;;2.42;0.90;;;;;;;19.23;49.52;96823.16;10294439;28;20431;-55
2022/12/28 18:03:22;;;;;;;1.63;1.00;;;;;;;19.23;49.57;96817.75;10304234;28;20050;-55
2022/12/28 18:08:42;;;;;;;1.35;0.93;;;;;;;19.22;49.56;96820.75;10294224;28;20121;-54
2022/12/28 18:14:01;;;;;;;1.25;0.93;;;;;;;19.22;49.59;96820.75;10302154;28;20054;-54
2022/12/28 18:19:21;;;;;;;2.17;1.08;;;;;;;19.20;49.75;96812.19;10333490;28;20065;-55
2022/12/28 18:24:40;;;;;;;1.75;0.90;;;;;;;19.18;49.66;96815.22;10333095;28;20054;-54
2022/12/28 18:30:00;;;;;;;1.00;0.85;;;;;;;19.17;49.79;96825.22;10346576;28;20514;-54
2022/12/28 18:35:23;;;;;;;3.10;1.10;;;;;;;19.16;50.02;96810.13;10333531;28;20050;-55
2022/12/28 18:41:11;;;;;;;2.75;1.02;;;;;;;19.16;49.96;96807.41;10333155;28;20062;-55
2022/12/28 18:46:30;;;;;;;1.83;0.93;;;;;;;19.14;50.30;96795.38;10249211;28;20118;-55
2022/12/28 18:51:50;;;;;;;1.23;0.80;;;;;;;19.13;50.06;96796.47;10261418;28;20047;-55
2022/12/28 18:57:09;;;;;;;1.92;0.80;;;;;;;19.11;50.49;96785.19;10248210;29;20067;-55
2022/12/28 19:02:29;;;;;;;1.42;0.90;;;;;;;19.10;50.43;96786.31;10237971;29;20068;-55
2022/12/28 19:07:48;;;;;;;1.30;1.00;;;;;;;19.10;50.58;96787.09;10247668;29;20587;-55
2022/12/28 19:13:07;;;;;;;1.40;0.85;;;;;;;19.09;50.52;96782.84;10255643;28;20063;-55
2022/12/28 19:18:27;;;;;;;2.30;1.08;;;;;;;19.08;50.56;96775.03;10332249;28;20108;-54
2022/12/28 19:23:49;;;;;;;4.10;1.50;;;;;;;19.07;50.40;96779.66;10332264;28;20055;-55
2022/12/28 19:29:11;;;;;;;2.97;1.17;;;;;;;19.07;50.97;96776.16;10326035;28;20454;-55
2022/12/28 19:34:30;;;;;;;4.82;1.83;;;;;;;19.07;50.75;96770.75;10331279;28;20061;-56
2022/12/28 19:39:49;;;;;;;6.95;2.40;;;;;;;19.04;51.19;96771.41;10351910;28;20054;-56
2022/12/28 19:45:09;;;;;;;8.35;2.28;;;;;;;19.05;51.41;96773.78;10353406;28;20061;-55
2022/12/28 19:50:29;;;;;;;7.85;2.50;;;;;;;19.06;51.61;96774.56;10339722;28;20054;-55
2022/12/28 19:55:48;;;;;;;7.28;2.47;;;;;;;19.04;52.23;96772.19;10332478;28;20058;-55
2022/12/28 20:01:19;;;;;;;6.80;2.50;;;;;;;19.03;52.37;96767.09;10332724;28;20541;-55
2022/12/28 20:06:41;;;;;;;8.60;2.60;;;;;;;19.04;52.41;96760.59;10301610;28;20146;-55
2022/12/28 20:12:01;;;;;;;6.40;2.30;;;;;;;19.03;52.61;96751.69;10342835;28;20049;-54
2022/12/28 20:17:20;;;;;;;8.82;3.03;;;;;;;19.01;52.68;96750.44;10338310;28;20058;-54
2022/12/28 20:22:40;;;;;;;10.27;2.88;;;;;;;19.01;52.87;96750.44;10338441;28;20054;-54
2022/12/28 20:28:00;;;;;;;7.95;2.80;;;;;;;19.00;53.04;96741.56;10338499;28;20391;-55
2022/12/28 20:33:19;;;;;;;6.82;2.67;;;;;;;18.99;52.83;96734.56;10338196;28;20054;-55
2022/12/28 20:38:39;;;;;;;7.43;2.80;;;;;;;18.99;52.92;96748.06;10338283;28;20065;-53
2022/12/28 20:44:01;;;;;;;12.35;2.92;;;;;;;18.98;53.04;96737.59;10329906;28;20062;-53
2022/12/28 20:49:22;;;;;;;10.20;3.15;;;;;;;18.96;53.09;96719.81;10311033;28;20062;-55
2022/12/28 20:54:42;;;;;;;10.63;3.75;;;;;;;18.95;53.02;96720.94;10332282;28;20411;-54
2022/12/28 21:00:02;;;;;;;11.02;3.47;;;;;;;18.95;53.03;96730.91;10322562;28;20467;-54
2022/12/28 21:05:24;;;;;;;6.28;2.88;;;;;;;18.93;53.09;96716.94;10322284;28;20062;-55
2022/12/28 21:10:47;;;;;;;7.82;3.03;;;;;;;18.92;52.99;96716.16;10350023;28;20065;-54
2022/12/28 21:16:07;;;;;;;6.22;2.60;;;;;;;18.91;52.96;96708.38;10325016;28;20054;-55
2022/12/28 21:21:26;;;;;;;6.82;2.63;;;;;;;18.91;52.84;96714.56;10336341;28;20109;-55
2022/12/28 21:26:45;;;;;;;7.07;2.50;;;;;;;18.90;52.87;96701.41;10336133;28;20059;-55
2022/12/28 21:32:05;;;;;;;7.40;2.53;;;;;;;18.89;52.68;96705.22;10336229;28;20058;-55
2022/12/28 21:37:33;;;;;;;6.68;2.35;;;;;;;18.87;52.62;96702.03;10335683;28;20054;-54
2022/12/28 21:42:53;;;;;;;5.20;2.13;;;;;;;18.86;52.50;96695.06;10336008;28;20105;-54
2022/12/28 21:48:12;;;;;;;6.85;2.45;;;;;;;18.86;52.46;96687.75;10334815;28;20070;-55
2022/12/28 21:53:32;;;;;;;4.65;1.98;;;;;;;18.83;52.34;96691.09;10347972;28;20046;-55
2022/12/28 21:58:51;;;;;;;5.35;2.10;;;;;;;18.83;52.22;96695.72;10347204;28;20557;-55
2022/12/28 22:21:07;;;;;;;4.73;2.17;;;;;;;18.77;52.02;96693.13;10334201;28;20085;-55
2022/12/28 22:26:27;;;;;;;4.72;2.00;;;;;;;18.76;52.14;96669.19;10329423;28;20526;-55
2022/12/28 22:31:46;;;;;;;6.15;2.00;;;;;;;18.74;52.03;96656.00;10333268;28;20062;-54
2022/12/28 22:37:05;;;;;;;4.25;1.77;;;;;;;18.74;51.88;96650.63;10346544;28;20395;-55
2022/12/28 22:42:25;;;;;;;3.00;1.60;;;;;;;18.73;51.91;96646.31;10333327;28;20065;-55
2022/12/28 22:47:45;;;;;;;3.45;1.80;;;;;;;18.71;51.96;96640.44;10332825;28;20062;-54
2022/12/28 22:53:04;;;;;;;4.75;1.95;;;;;;;18.70;51.78;96633.50;10325934;28;20050;-54
2022/12/28 22:58:25;;;;;;;3.22;1.60;;;;;;;18.70;51.87;96636.19;10332475;28;20074;-54
2022/12/28 23:03:46;;;;;;;3.50;1.70;;;;;;;18.69;51.83;96613.00;10326961;28;20065;-55
2022/12/28 23:09:05;;;;;;;3.35;1.65;;;;;;;18.67;51.86;96609.84;10326168;28;20065;-55
2022/12/28 23:31:21;;;;;;;3.40;1.60;;;;;;;18.63;51.65;96587.31;10345085;28;20104;-55
2022/12/28 23:36:40;;;;;;;3.33;1.85;;;;;;;18.63;51.58;96575.75;10332046;28;20109;-55
2022/12/28 23:41:59;;;;;;;4.82;1.50;;;;;;;18.60;51.47;96558.28;10332030;28;20058;-55
2022/12/28 23:47:19;;;;;;;3.67;1.70;;;;;;;18.60;51.66;96563.66;10331913;28;20058;-55
2022/12/28 23:52:39;;;;;;;2.38;1.38;;;;;;;18.60;51.69;96550.19;10344513;28;20057;-55
2022/12/28 23:57:58;;;;;;;2.92;1.60;;;;;;;18.60;51.54;96544.00;10344375;28;20050;-54
